This is the latest recevied weather packets stored in our database for station/object KE0PRS. If no packets are shown the sender has not sent any weather packets the latest 10 day(s).
| Time | Temp. | Humidity | Pressure | Rain* | Wind** | Luminosity | Snow |
|---|---|---|---|---|---|---|---|
| 1787695899 | 31.11° C | 48% | 1017.4 hPa | 0 mm | - | 443 W/m² | - |
| 1787695595 | 30.56° C | 51% | 1017.3 hPa | 0 mm | - | 452 W/m² | - |
| 1787695292 | 30.56° C | 50% | 1017.2 hPa | 0 mm | - | 469 W/m² | - |
| 1787694990 | 31.11° C | 50% | 1017.3 hPa | 0 mm | - | 485 W/m² | - |
| 1787694690 | 30.56° C | 50% | 1017.5 hPa | 0 mm | - | 499 W/m² | - |
| 1787694385 | 30.56° C | 51% | 1017.4 hPa | 0 mm | - | 512 W/m² | - |
| 1787694080 | 30.56° C | 52% | 1017.5 hPa | 0 mm | - | 529 W/m² | - |
| 1787693776 | 30.56° C | 51% | 1017.6 hPa | 0 mm | - | 542 W/m² | - |
| 1787693472 | 30° C | 53% | 1017.7 hPa | 0 mm | - | 558 W/m² | - |
| 1787693168 | 29.44° C | 54% | 1017.9 hPa | 0 mm | - | 572 W/m² | - |
| 1787692864 | 29.44° C | 54% | 1017.9 hPa | 0 mm | - | 581 W/m² | - |
| 1787692558 | 28.89° C | 57% | 1017.9 hPa | 0 mm | - | 602 W/m² | - |
| 1787692258 | 28.89° C | 56% | 1018.1 hPa | 0 mm | - | 615 W/m² | - |
| 1787691953 | 28.33° C | 59% | 1018.2 hPa | 0 mm | - | 626 W/m² | - |
| 1787691652 | 28.33° C | 59% | 1018.5 hPa | 0 mm | - | 639 W/m² | - |
| 1787691350 | 28.33° C | 59% | 1018.2 hPa | 0 mm | - | 653 W/m² | - |
| 1787691045 | 27.78° C | 60% | 1018.4 hPa | 0 mm | - | 677 W/m² | - |
| 1787690740 | 28.33° C | 58% | 1018.4 hPa | 0 mm | - | 245 W/m² | - |
| 1787690435 | 28.89° C | 59% | 1018.6 hPa | 0 mm | - | 453 W/m² | - |
| 1787690131 | 29.44° C | 53% | 1018.4 hPa | 0 mm | - | 375 W/m² | - |
| 1787689827 | 28.89° C | 54% | 1018 hPa | 0 mm | - | 847 W/m² | - |
| 1787689522 | 27.78° C | 58% | 1017.8 hPa | 0 mm | - | 912 W/m² | - |
| 1787689218 | 27.22° C | 57% | 1017.7 hPa | 0 mm | - | 387 W/m² | - |
| 1787688913 | 26.67° C | 60% | 1017.6 hPa | 0 mm | - | 458 W/m² | - |
| 1787688609 | 26.11° C | 62% | 1017.7 hPa | 0 mm | - | 324 W/m² | - |
* Rain latest hour (hover to see other rain measurements)
** Current wind speed in m/s (hover to see current wind gust speed)